sensor_id;sensor_type;location;lat;lon;timestamp;temperature;humidity
18781;DHT22;9519;51.890;8.970;2022-07-23T00:03:08;17.00;99.90
18781;DHT22;9519;51.890;8.970;2022-07-23T00:08:12;17.00;99.90
18781;DHT22;9519;51.890;8.970;2022-07-23T00:13:14;16.90;99.90
18781;DHT22;9519;51.890;8.970;2022-07-23T00:18:16;16.90;99.90
18781;DHT22;9519;51.890;8.970;2022-07-23T00:23:20;16.90;99.90
18781;DHT22;9519;51.890;8.970;2022-07-23T00:28:22;16.90;99.90
18781;DHT22;9519;51.890;8.970;2022-07-23T00:33:24;16.90;99.90
18781;DHT22;9519;51.890;8.970;2022-07-23T00:38:27;17.00;99.90
18781;DHT22;9519;51.890;8.970;2022-07-23T00:43:29;16.90;99.90
18781;DHT22;9519;51.890;8.970;2022-07-23T00:48:32;17.00;99.90
18781;DHT22;9519;51.890;8.970;2022-07-23T00:53:35;16.90;99.90
18781;DHT22;9519;51.890;8.970;2022-07-23T00:58:39;16.90;99.90
18781;DHT22;9519;51.890;8.970;2022-07-23T01:03:44;16.90;99.90
18781;DHT22;9519;51.890;8.970;2022-07-23T01:08:48;16.90;99.90
18781;DHT22;9519;51.890;8.970;2022-07-23T01:13:50;16.80;99.90
18781;DHT22;9519;51.890;8.970;2022-07-23T01:18:52;16.80;99.90
18781;DHT22;9519;51.890;8.970;2022-07-23T01:23:58;16.70;99.90
18781;DHT22;9519;51.890;8.970;2022-07-23T01:29:00;16.50;99.90
18781;DHT22;9519;51.890;8.970;2022-07-23T01:34:02;16.40;99.90
18781;DHT22;9519;51.890;8.970;2022-07-23T01:39:07;16.40;99.90
18781;DHT22;9519;51.890;8.970;2022-07-23T01:44:09;16.30;99.90
18781;DHT22;9519;51.890;8.970;2022-07-23T01:49:11;16.20;99.90
18781;DHT22;9519;51.890;8.970;2022-07-23T01:54:15;16.20;99.90
18781;DHT22;9519;51.890;8.970;2022-07-23T01:59:17;16.10;99.90
18781;DHT22;9519;51.890;8.970;2022-07-23T02:04:20;16.10;99.90
18781;DHT22;9519;51.890;8.970;2022-07-23T02:09:24;16.10;99.90
18781;DHT22;9519;51.890;8.970;2022-07-23T02:14:26;16.20;99.90
18781;DHT22;9519;51.890;8.970;2022-07-23T02:19:29;16.20;99.90
18781;DHT22;9519;51.890;8.970;2022-07-23T02:24:32;16.30;99.90
18781;DHT22;9519;51.890;8.970;2022-07-23T02:29:34;16.40;99.90
18781;DHT22;9519;51.890;8.970;2022-07-23T02:34:36;16.50;99.90
18781;DHT22;9519;51.890;8.970;2022-07-23T02:39:40;16.50;99.90
18781;DHT22;9519;51.890;8.970;2022-07-23T02:44:43;16.60;99.90
18781;DHT22;9519;51.890;8.970;2022-07-23T02:49:45;16.60;99.90
18781;DHT22;9519;51.890;8.970;2022-07-23T02:54:48;16.60;99.90
18781;DHT22;9519;51.890;8.970;2022-07-23T02:59:50;16.60;99.90
18781;DHT22;9519;51.890;8.970;2022-07-23T03:04:53;16.70;99.90
18781;DHT22;9519;51.890;8.970;2022-07-23T03:09:56;16.60;99.90
18781;DHT22;9519;51.890;8.970;2022-07-23T03:14:58;16.60;99.90
18781;DHT22;9519;51.890;8.970;2022-07-23T03:20:00;16.60;99.90
18781;DHT22;9519;51.890;8.970;2022-07-23T03:25:04;16.60;99.90
18781;DHT22;9519;51.890;8.970;2022-07-23T03:30:08;16.60;99.90
18781;DHT22;9519;51.890;8.970;2022-07-23T03:35:11;16.60;99.90
18781;DHT22;9519;51.890;8.970;2022-07-23T03:40:14;16.60;99.90
18781;DHT22;9519;51.890;8.970;2022-07-23T03:45:16;16.60;99.90
18781;DHT22;9519;51.890;8.970;2022-07-23T03:50:19;16.60;99.90
18781;DHT22;9519;51.890;8.970;2022-07-23T03:55:23;16.60;99.90
18781;DHT22;9519;51.890;8.970;2022-07-23T04:00:25;16.50;99.90
18781;DHT22;9519;51.890;8.970;2022-07-23T04:05:27;16.40;99.90
18781;DHT22;9519;51.890;8.970;2022-07-23T04:10:31;16.30;99.90
18781;DHT22;9519;51.890;8.970;2022-07-23T04:15:33;16.20;99.90
18781;DHT22;9519;51.890;8.970;2022-07-23T04:20:35;16.20;99.90
18781;DHT22;9519;51.890;8.970;2022-07-23T04:25:38;16.10;99.90
18781;DHT22;9519;51.890;8.970;2022-07-23T04:30:41;16.10;99.90
18781;DHT22;9519;51.890;8.970;2022-07-23T04:35:43;16.00;99.90
18781;DHT22;9519;51.890;8.970;2022-07-23T04:40:46;16.00;99.90
18781;DHT22;9519;51.890;8.970;2022-07-23T04:45:48;15.90;99.90
18781;DHT22;9519;51.890;8.970;2022-07-23T04:50:51;15.90;99.90
18781;DHT22;9519;51.890;8.970;2022-07-23T04:55:54;15.80;99.90
18781;DHT22;9519;51.890;8.970;2022-07-23T05:00:56;15.70;99.90
18781;DHT22;9519;51.890;8.970;2022-07-23T05:05:59;15.70;99.90
18781;DHT22;9519;51.890;8.970;2022-07-23T05:11:02;15.70;99.90
18781;DHT22;9519;51.890;8.970;2022-07-23T05:16:05;15.70;99.90
18781;DHT22;9519;51.890;8.970;2022-07-23T05:21:07;15.70;99.90
18781;DHT22;9519;51.890;8.970;2022-07-23T05:26:11;15.70;99.90
18781;DHT22;9519;51.890;8.970;2022-07-23T05:31:13;15.80;99.90
18781;DHT22;9519;51.890;8.970;2022-07-23T05:36:15;15.80;99.90
18781;DHT22;9519;51.890;8.970;2022-07-23T05:41:18;15.90;99.90
18781;DHT22;9519;51.890;8.970;2022-07-23T05:46:20;15.80;99.90
18781;DHT22;9519;51.890;8.970;2022-07-23T05:51:23;15.80;99.90
18781;DHT22;9519;51.890;8.970;2022-07-23T05:56:28;15.80;99.90
18781;DHT22;9519;51.890;8.970;2022-07-23T06:01:30;15.80;99.90
18781;DHT22;9519;51.890;8.970;2022-07-23T06:06:32;15.80;99.90
18781;DHT22;9519;51.890;8.970;2022-07-23T06:11:35;15.90;99.90
18781;DHT22;9519;51.890;8.970;2022-07-23T06:16:37;15.90;99.90
18781;DHT22;9519;51.890;8.970;2022-07-23T06:21:40;16.10;99.90
18781;DHT22;9519;51.890;8.970;2022-07-23T06:26:43;16.10;99.90
18781;DHT22;9519;51.890;8.970;2022-07-23T06:31:45;16.10;99.90
18781;DHT22;9519;51.890;8.970;2022-07-23T06:36:47;16.20;99.90
18781;DHT22;9519;51.890;8.970;2022-07-23T06:41:51;16.20;99.90
18781;DHT22;9519;51.890;8.970;2022-07-23T06:46:53;16.30;99.90
18781;DHT22;9519;51.890;8.970;2022-07-23T06:51:55;16.20;99.90
18781;DHT22;9519;51.890;8.970;2022-07-23T06:56:59;16.30;99.90
18781;DHT22;9519;51.890;8.970;2022-07-23T07:02:02;16.30;99.90
18781;DHT22;9519;51.890;8.970;2022-07-23T07:07:04;16.30;99.90
18781;DHT22;9519;51.890;8.970;2022-07-23T07:12:08;16.30;99.90
18781;DHT22;9519;51.890;8.970;2022-07-23T07:17:12;16.30;99.90
18781;DHT22;9519;51.890;8.970;2022-07-23T07:22:15;16.30;99.90
18781;DHT22;9519;51.890;8.970;2022-07-23T07:27:19;16.40;99.90
18781;DHT22;9519;51.890;8.970;2022-07-23T07:32:21;16.50;99.90
18781;DHT22;9519;51.890;8.970;2022-07-23T07:37:23;16.60;99.90
18781;DHT22;9519;51.890;8.970;2022-07-23T07:42:27;16.70;99.90
18781;DHT22;9519;51.890;8.970;2022-07-23T07:47:29;16.90;99.90
18781;DHT22;9519;51.890;8.970;2022-07-23T07:52:31;17.00;99.90
18781;DHT22;9519;51.890;8.970;2022-07-23T07:57:35;17.10;99.90
18781;DHT22;9519;51.890;8.970;2022-07-23T08:02:43;17.30;99.90
18781;DHT22;9519;51.890;8.970;2022-07-23T08:07:45;17.50;99.90
18781;DHT22;9519;51.890;8.970;2022-07-23T08:12:51;17.60;99.90
18781;DHT22;9519;51.890;8.970;2022-07-23T08:17:56;17.70;99.90
18781;DHT22;9519;51.890;8.970;2022-07-23T08:23:02;17.80;99.90
18781;DHT22;9519;51.890;8.970;2022-07-23T08:28:09;17.90;99.90
18781;DHT22;9519;51.890;8.970;2022-07-23T08:33:13;18.10;99.90
18781;DHT22;9519;51.890;8.970;2022-07-23T08:38:18;18.20;99.90
18781;DHT22;9519;51.890;8.970;2022-07-23T08:43:31;18.30;99.90
18781;DHT22;9519;51.890;8.970;2022-07-23T08:48:36;18.40;99.90
18781;DHT22;9519;51.890;8.970;2022-07-23T08:53:38;18.40;99.90
18781;DHT22;9519;51.890;8.970;2022-07-23T08:58:42;18.60;99.90
18781;DHT22;9519;51.890;8.970;2022-07-23T09:03:44;18.60;99.90
18781;DHT22;9519;51.890;8.970;2022-07-23T09:08:47;18.70;99.90
18781;DHT22;9519;51.890;8.970;2022-07-23T09:13:51;18.70;99.90
18781;DHT22;9519;51.890;8.970;2022-07-23T09:18:58;18.80;99.90
18781;DHT22;9519;51.890;8.970;2022-07-23T09:24:03;18.90;99.90
18781;DHT22;9519;51.890;8.970;2022-07-23T09:29:15;19.00;99.90
18781;DHT22;9519;51.890;8.970;2022-07-23T09:34:20;19.10;99.90
18781;DHT22;9519;51.890;8.970;2022-07-23T09:39:29;19.20;99.90
18781;DHT22;9519;51.890;8.970;2022-07-23T09:44:41;19.30;99.90
18781;DHT22;9519;51.890;8.970;2022-07-23T09:49:58;19.40;99.90
18781;DHT22;9519;51.890;8.970;2022-07-23T09:55:04;19.40;99.90
18781;DHT22;9519;51.890;8.970;2022-07-23T10:00:10;19.50;99.90
18781;DHT22;9519;51.890;8.970;2022-07-23T10:05:13;19.60;99.90
18781;DHT22;9519;51.890;8.970;2022-07-23T10:10:17;19.70;99.90
18781;DHT22;9519;51.890;8.970;2022-07-23T10:15:21;19.60;99.90
18781;DHT22;9519;51.890;8.970;2022-07-23T10:20:24;19.70;99.90
18781;DHT22;9519;51.890;8.970;2022-07-23T10:25:32;19.80;99.90
18781;DHT22;9519;51.890;8.970;2022-07-23T10:30:45;20.00;99.90
18781;DHT22;9519;51.890;8.970;2022-07-23T10:35:59;20.30;99.90
18781;DHT22;9519;51.890;8.970;2022-07-23T10:41:06;20.40;99.70
18781;DHT22;9519;51.890;8.970;2022-07-23T10:46:23;20.60;99.10
18781;DHT22;9519;51.890;8.970;2022-07-23T10:51:33;20.70;98.90
18781;DHT22;9519;51.890;8.970;2022-07-23T10:57:08;20.70;98.00
18781;DHT22;9519;51.890;8.970;2022-07-23T11:02:33;20.70;98.10
18781;DHT22;9519;51.890;8.970;2022-07-23T11:07:36;20.70;97.10
18781;DHT22;9519;51.890;8.970;2022-07-23T11:13:35;20.90;97.20
18781;DHT22;9519;51.890;8.970;2022-07-23T11:19:06;20.90;96.70
18781;DHT22;9519;51.890;8.970;2022-07-23T11:24:10;20.90;96.50
18781;DHT22;9519;51.890;8.970;2022-07-23T11:29:39;20.90;95.70
18781;DHT22;9519;51.890;8.970;2022-07-23T11:35:01;20.90;95.40
18781;DHT22;9519;51.890;8.970;2022-07-23T11:40:07;21.10;95.20
18781;DHT22;9519;51.890;8.970;2022-07-23T11:45:11;21.10;94.90
18781;DHT22;9519;51.890;8.970;2022-07-23T11:50:15;21.10;94.70
18781;DHT22;9519;51.890;8.970;2022-07-23T11:55:17;21.20;94.00
18781;DHT22;9519;51.890;8.970;2022-07-23T12:00:22;21.40;93.90
18781;DHT22;9519;51.890;8.970;2022-07-23T12:05:28;21.50;93.80
18781;DHT22;9519;51.890;8.970;2022-07-23T12:10:35;21.60;93.40
18781;DHT22;9519;51.890;8.970;2022-07-23T12:15:41;21.70;93.10
18781;DHT22;9519;51.890;8.970;2022-07-23T12:20:50;21.90;92.80
18781;DHT22;9519;51.890;8.970;2022-07-23T12:25:54;22.00;92.60
18781;DHT22;9519;51.890;8.970;2022-07-23T12:30:57;22.00;92.10
18781;DHT22;9519;51.890;8.970;2022-07-23T12:36:04;22.00;91.60
18781;DHT22;9519;51.890;8.970;2022-07-23T12:41:09;22.10;91.20
18781;DHT22;9519;51.890;8.970;2022-07-23T12:46:15;22.20;90.70
18781;DHT22;9519;51.890;8.970;2022-07-23T12:51:22;22.20;90.40
18781;DHT22;9519;51.890;8.970;2022-07-23T12:56:28;22.30;90.80
18781;DHT22;9519;51.890;8.970;2022-07-23T13:01:33;22.60;90.20
18781;DHT22;9519;51.890;8.970;2022-07-23T13:06:39;22.60;88.90
18781;DHT22;9519;51.890;8.970;2022-07-23T13:11:42;22.70;90.20
18781;DHT22;9519;51.890;8.970;2022-07-23T13:16:46;22.90;89.00
18781;DHT22;9519;51.890;8.970;2022-07-23T13:21:50;23.10;87.20
18781;DHT22;9519;51.890;8.970;2022-07-23T13:26:52;23.20;86.40
18781;DHT22;9519;51.890;8.970;2022-07-23T13:31:54;23.30;86.20
18781;DHT22;9519;51.890;8.970;2022-07-23T13:36:58;23.40;85.90
18781;DHT22;9519;51.890;8.970;2022-07-23T13:42:01;23.60;87.40
18781;DHT22;9519;51.890;8.970;2022-07-23T13:47:03;23.70;84.50
18781;DHT22;9519;51.890;8.970;2022-07-23T13:52:07;23.90;83.70
18781;DHT22;9519;51.890;8.970;2022-07-23T13:57:09;24.10;83.00
18781;DHT22;9519;51.890;8.970;2022-07-23T14:02:13;24.30;80.70
18781;DHT22;9519;51.890;8.970;2022-07-23T14:07:20;24.30;79.40
18781;DHT22;9519;51.890;8.970;2022-07-23T14:12:22;24.20;78.70
18781;DHT22;9519;51.890;8.970;2022-07-23T14:17:25;24.20;78.70
18781;DHT22;9519;51.890;8.970;2022-07-23T14:22:28;24.30;78.00
18781;DHT22;9519;51.890;8.970;2022-07-23T14:27:33;24.30;77.40
18781;DHT22;9519;51.890;8.970;2022-07-23T14:32:35;24.40;76.40
18781;DHT22;9519;51.890;8.970;2022-07-23T14:37:40;24.60;75.20
18781;DHT22;9519;51.890;8.970;2022-07-23T14:42:42;24.60;74.40
18781;DHT22;9519;51.890;8.970;2022-07-23T14:47:44;24.70;74.50
18781;DHT22;9519;51.890;8.970;2022-07-23T14:52:48;24.90;72.20
18781;DHT22;9519;51.890;8.970;2022-07-23T14:57:50;24.90;71.90
18781;DHT22;9519;51.890;8.970;2022-07-23T15:02:53;25.10;71.40
18781;DHT22;9519;51.890;8.970;2022-07-23T15:07:56;25.30;70.00
18781;DHT22;9519;51.890;8.970;2022-07-23T15:12:59;25.30;68.40
18781;DHT22;9519;51.890;8.970;2022-07-23T15:18:01;25.40;68.50
18781;DHT22;9519;51.890;8.970;2022-07-23T15:23:05;25.60;68.20
18781;DHT22;9519;51.890;8.970;2022-07-23T15:28:07;26.00;66.90
18781;DHT22;9519;51.890;8.970;2022-07-23T15:33:09;26.10;66.20
18781;DHT22;9519;51.890;8.970;2022-07-23T15:38:13;26.20;64.10
18781;DHT22;9519;51.890;8.970;2022-07-23T15:43:15;26.50;64.70
18781;DHT22;9519;51.890;8.970;2022-07-23T15:48:18;26.80;62.80
18781;DHT22;9519;51.890;8.970;2022-07-23T15:53:23;26.80;60.40
18781;DHT22;9519;51.890;8.970;2022-07-23T15:58:26;26.60;61.30
18781;DHT22;9519;51.890;8.970;2022-07-23T16:03:28;26.50;61.20
18781;DHT22;9519;51.890;8.970;2022-07-23T16:08:32;26.60;62.20
18781;DHT22;9519;51.890;8.970;2022-07-23T16:13:34;26.70;61.00
18781;DHT22;9519;51.890;8.970;2022-07-23T16:18:36;26.80;60.70
18781;DHT22;9519;51.890;8.970;2022-07-23T16:23:40;27.00;60.10
18781;DHT22;9519;51.890;8.970;2022-07-23T16:28:42;27.00;60.00
18781;DHT22;9519;51.890;8.970;2022-07-23T16:33:45;26.90;59.20
18781;DHT22;9519;51.890;8.970;2022-07-23T16:38:49;26.80;59.90
18781;DHT22;9519;51.890;8.970;2022-07-23T16:43:52;26.70;60.00
18781;DHT22;9519;51.890;8.970;2022-07-23T16:48:54;26.80;59.40
18781;DHT22;9519;51.890;8.970;2022-07-23T16:53:57;26.80;59.00
18781;DHT22;9519;51.890;8.970;2022-07-23T16:58:59;26.80;59.20
18781;DHT22;9519;51.890;8.970;2022-07-23T17:04:03;26.80;59.20
18781;DHT22;9519;51.890;8.970;2022-07-23T17:09:07;27.10;60.50
18781;DHT22;9519;51.890;8.970;2022-07-23T17:14:10;27.50;58.80
18781;DHT22;9519;51.890;8.970;2022-07-23T17:19:14;27.40;59.20
18781;DHT22;9519;51.890;8.970;2022-07-23T17:24:17;27.50;59.00
18781;DHT22;9519;51.890;8.970;2022-07-23T17:29:20;27.60;59.00
18781;DHT22;9519;51.890;8.970;2022-07-23T17:34:22;27.80;57.60
18781;DHT22;9519;51.890;8.970;2022-07-23T17:39:25;27.60;57.40
18781;DHT22;9519;51.890;8.970;2022-07-23T17:44:31;27.50;57.30
18781;DHT22;9519;51.890;8.970;2022-07-23T17:49:33;27.20;57.20
18781;DHT22;9519;51.890;8.970;2022-07-23T17:54:36;26.90;56.70
18781;DHT22;9519;51.890;8.970;2022-07-23T17:59:39;26.50;57.10
18781;DHT22;9519;51.890;8.970;2022-07-23T18:04:41;26.10;57.80
18781;DHT22;9519;51.890;8.970;2022-07-23T18:09:45;25.80;58.10
18781;DHT22;9519;51.890;8.970;2022-07-23T18:14:48;25.50;58.70
18781;DHT22;9519;51.890;8.970;2022-07-23T18:19:50;25.30;59.30
18781;DHT22;9519;51.890;8.970;2022-07-23T18:24:54;25.10;59.50
18781;DHT22;9519;51.890;8.970;2022-07-23T18:29:56;24.90;59.50
18781;DHT22;9519;51.890;8.970;2022-07-23T18:34:58;24.80;60.10
18781;DHT22;9519;51.890;8.970;2022-07-23T18:40:03;24.70;60.30
18781;DHT22;9519;51.890;8.970;2022-07-23T18:45:08;24.50;60.80
18781;DHT22;9519;51.890;8.970;2022-07-23T18:50:12;24.30;61.40
18781;DHT22;9519;51.890;8.970;2022-07-23T18:55:16;24.20;62.10
18781;DHT22;9519;51.890;8.970;2022-07-23T19:00:18;23.90;62.50
18781;DHT22;9519;51.890;8.970;2022-07-23T19:05:23;23.70;62.90
18781;DHT22;9519;51.890;8.970;2022-07-23T19:10:26;23.50;63.70
18781;DHT22;9519;51.890;8.970;2022-07-23T19:15:29;23.40;64.50
18781;DHT22;9519;51.890;8.970;2022-07-23T19:20:31;23.10;65.00
18781;DHT22;9519;51.890;8.970;2022-07-23T19:25:35;22.90;65.30
18781;DHT22;9519;51.890;8.970;2022-07-23T19:30:38;22.70;66.00
18781;DHT22;9519;51.890;8.970;2022-07-23T19:35:40;22.50;66.70
18781;DHT22;9519;51.890;8.970;2022-07-23T19:40:44;22.20;67.20
18781;DHT22;9519;51.890;8.970;2022-07-23T19:45:47;22.00;68.10
18781;DHT22;9519;51.890;8.970;2022-07-23T19:50:50;21.80;68.90
18781;DHT22;9519;51.890;8.970;2022-07-23T19:55:56;21.60;69.60
18781;DHT22;9519;51.890;8.970;2022-07-23T20:00:58;21.30;70.20
18781;DHT22;9519;51.890;8.970;2022-07-23T20:06:00;21.10;70.70
18781;DHT22;9519;51.890;8.970;2022-07-23T20:11:04;21.00;71.10
18781;DHT22;9519;51.890;8.970;2022-07-23T20:16:08;20.80;72.30
18781;DHT22;9519;51.890;8.970;2022-07-23T20:21:10;20.70;73.10
18781;DHT22;9519;51.890;8.970;2022-07-23T20:26:14;20.60;73.90
18781;DHT22;9519;51.890;8.970;2022-07-23T20:31:17;20.50;74.50
18781;DHT22;9519;51.890;8.970;2022-07-23T20:36:20;20.40;75.00
18781;DHT22;9519;51.890;8.970;2022-07-23T20:41:23;20.30;75.80
18781;DHT22;9519;51.890;8.970;2022-07-23T20:46:25;20.10;76.80
18781;DHT22;9519;51.890;8.970;2022-07-23T20:51:28;20.00;77.30
18781;DHT22;9519;51.890;8.970;2022-07-23T20:56:32;19.90;77.70
18781;DHT22;9519;51.890;8.970;2022-07-23T21:01:34;19.80;78.20
18781;DHT22;9519;51.890;8.970;2022-07-23T21:06:36;19.70;78.50
18781;DHT22;9519;51.890;8.970;2022-07-23T21:11:40;19.50;78.90
18781;DHT22;9519;51.890;8.970;2022-07-23T21:16:42;19.40;79.70
18781;DHT22;9519;51.890;8.970;2022-07-23T21:21:45;19.30;80.50
18781;DHT22;9519;51.890;8.970;2022-07-23T21:26:48;19.20;81.50
18781;DHT22;9519;51.890;8.970;2022-07-23T21:31:50;19.10;82.30
18781;DHT22;9519;51.890;8.970;2022-07-23T21:36:54;19.00;82.80
18781;DHT22;9519;51.890;8.970;2022-07-23T21:41:58;18.90;83.40
18781;DHT22;9519;51.890;8.970;2022-07-23T21:47:00;18.80;84.20
18781;DHT22;9519;51.890;8.970;2022-07-23T21:52:03;18.70;84.80
18781;DHT22;9519;51.890;8.970;2022-07-23T21:57:07;18.60;85.40
18781;DHT22;9519;51.890;8.970;2022-07-23T22:02:09;18.50;86.10
18781;DHT22;9519;51.890;8.970;2022-07-23T22:07:11;18.40;86.70
18781;DHT22;9519;51.890;8.970;2022-07-23T22:12:15;18.30;87.10
18781;DHT22;9519;51.890;8.970;2022-07-23T22:17:18;18.20;87.80
18781;DHT22;9519;51.890;8.970;2022-07-23T22:22:20;18.20;88.30
18781;DHT22;9519;51.890;8.970;2022-07-23T22:27:23;18.10;88.90
18781;DHT22;9519;51.890;8.970;2022-07-23T22:32:25;18.00;89.70
18781;DHT22;9519;51.890;8.970;2022-07-23T22:37:28;17.90;90.00
18781;DHT22;9519;51.890;8.970;2022-07-23T22:42:31;17.80;90.30
18781;DHT22;9519;51.890;8.970;2022-07-23T22:47:34;17.70;90.50
18781;DHT22;9519;51.890;8.970;2022-07-23T22:52:38;17.60;90.70
18781;DHT22;9519;51.890;8.970;2022-07-23T22:57:42;17.60;91.00
18781;DHT22;9519;51.890;8.970;2022-07-23T23:02:44;17.50;91.20
18781;DHT22;9519;51.890;8.970;2022-07-23T23:07:46;17.40;91.40
18781;DHT22;9519;51.890;8.970;2022-07-23T23:12:49;17.30;91.60
18781;DHT22;9519;51.890;8.970;2022-07-23T23:17:52;17.30;92.00
18781;DHT22;9519;51.890;8.970;2022-07-23T23:22:54;17.20;92.20
18781;DHT22;9519;51.890;8.970;2022-07-23T23:27:58;17.10;92.40
18781;DHT22;9519;51.890;8.970;2022-07-23T23:33:00;17.00;92.70
18781;DHT22;9519;51.890;8.970;2022-07-23T23:38:02;17.00;92.90
18781;DHT22;9519;51.890;8.970;2022-07-23T23:43:05;16.90;93.10
18781;DHT22;9519;51.890;8.970;2022-07-23T23:48:08;16.80;93.30
18781;DHT22;9519;51.890;8.970;2022-07-23T23:53:10;16.80;93.60
18781;DHT22;9519;51.890;8.970;2022-07-23T23:58:13;16.70;93.80
